Seattle, WA (98115)

1:19 PM PST on November 25, 2014 (GMT -0800)
View Ridge | Change Station
CLOSE
Current Station
Personal Weather Station
Location: Seattle, WA
Elevation: 285 ft
Nearby Weather Stations
Active Advisory: Flood Warning, Areal Flood Watch

Elev 285 ft 47.68 °N, 122.28 °W | Updated 2 seconds ago

Overcast
Overcast
48.1 °F
Feels Like 48 °F
N
0.7
Wind Variable Wind from NNE
Gusts 1.1 mph

Today
High -- | Low -- °F
--% Chance of Precip.
Yesterday
High -- | Low -- °F
Precip. -- in
7:29 AM 4:23 PM
Waxing Crescent, 14% visible
Pressure 30.20 in
Visibility 2.5 miles
Clouds Mostly Cloudy 500 ft
Overcast 1000 ft
Windchill 48 °F
Dew Point 47 °F
Humidity 95%
Rainfall 0.00 in
Snow Depth Not available.
UV 0 out of 12
Pollen .10 out of 12
Air Quality Not available.
Flu Activity Not available.
METAR KBFI 252053Z 00000KT 2 1/2SM BR BKN005 OVC010 11/08 A3020 RMK AO2 RAE52 SLP226 P0002 60006 T01060083 58006

More Conditions Fewer Conditions

Pressure 30.20 in
Visibility 2.5 miles
Clouds Mostly Cloudy 500 ft
Overcast 1000 ft
Windchill 48 °F
Dew Point 47 °F
Humidity 95%
Rainfall 0.00 in
Snow Depth Not available.
UV 0 out of 12
Pollen .10 out of 12
Air Quality Not available.
Flu Activity Not available.
METAR KBFI 252053Z 00000KT 2 1/2SM BR BKN005 OVC010 11/08 A3020 RMK AO2 RAE52 SLP226 P0002 60006 T01060083 58006

More Conditions Fewer Conditions

10-Day Weather Forecast

Almanac

Astronomy

Nov. 25, 2014 Rise Set
Actual Time
Civil Twilight
Nautical Twilight
Astronomical Twilight
Moon
Length of Visible Light
Length of Day
Tomorrow will be .
, % of the Moon is Illuminated

Today's Extremes

State Highs State Lows

Community

WunderPhotos

Upload Photos

1,773,588 photos uploaded!

WunderBlogs® & News

Nearby

Air Quality

  Air Quality AQ Index Pollutant
Not available.

Snow Depth

Station Depth Elevation

Earthquake Activity

City Distance Mag. Time & Date
Minimum magnitude displayed is 2.5.

Coastal Water Temperatures

Place Temperature

Nearby Weather Stations